sensor_id;sensor_type;location;lat;lon;timestamp;P1;durP1;ratioP1;P2;durP2;ratioP2
13432;SDS011;6789;47.678;9.158;2022-12-11T00:00:26;36.00;;;15.37;;
13432;SDS011;6789;47.678;9.158;2022-12-11T00:05:34;35.13;;;15.87;;
13432;SDS011;6789;47.678;9.158;2022-12-11T00:10:48;35.10;;;15.97;;
13432;SDS011;6789;47.678;9.158;2022-12-11T00:16:52;36.37;;;14.23;;
13432;SDS011;6789;47.678;9.158;2022-12-11T00:22:24;33.90;;;15.30;;
13432;SDS011;6789;47.678;9.158;2022-12-11T00:27:33;27.10;;;13.93;;
13432;SDS011;6789;47.678;9.158;2022-12-11T00:33:00;25.73;;;12.33;;
13432;SDS011;6789;47.678;9.158;2022-12-11T00:38:06;27.03;;;13.43;;
13432;SDS011;6789;47.678;9.158;2022-12-11T00:43:43;29.53;;;13.47;;
13432;SDS011;6789;47.678;9.158;2022-12-11T00:48:59;26.83;;;13.13;;
13432;SDS011;6789;47.678;9.158;2022-12-11T00:54:09;26.80;;;12.33;;
13432;SDS011;6789;47.678;9.158;2022-12-11T00:59:46;25.43;;;12.80;;
13432;SDS011;6789;47.678;9.158;2022-12-11T01:10:59;22.97;;;11.47;;
13432;SDS011;6789;47.678;9.158;2022-12-11T01:16:26;23.00;;;10.47;;
13432;SDS011;6789;47.678;9.158;2022-12-11T01:21:57;21.40;;;11.63;;
13432;SDS011;6789;47.678;9.158;2022-12-11T01:27:17;24.60;;;10.90;;
13432;SDS011;6789;47.678;9.158;2022-12-11T01:32:26;22.57;;;11.10;;
13432;SDS011;6789;47.678;9.158;2022-12-11T01:37:35;24.20;;;11.33;;
13432;SDS011;6789;47.678;9.158;2022-12-11T01:42:46;24.67;;;11.80;;
13432;SDS011;6789;47.678;9.158;2022-12-11T01:48:35;24.13;;;11.47;;
13432;SDS011;6789;47.678;9.158;2022-12-11T01:53:46;20.40;;;11.13;;
13432;SDS011;6789;47.678;9.158;2022-12-11T01:59:03;23.77;;;11.23;;
13432;SDS011;6789;47.678;9.158;2022-12-11T02:04:15;21.03;;;10.77;;
13432;SDS011;6789;47.678;9.158;2022-12-11T02:09:25;22.00;;;11.17;;
13432;SDS011;6789;47.678;9.158;2022-12-11T02:20:38;23.90;;;11.83;;
13432;SDS011;6789;47.678;9.158;2022-12-11T02:26:44;25.83;;;11.50;;
13432;SDS011;6789;47.678;9.158;2022-12-11T02:32:26;24.17;;;11.80;;
13432;SDS011;6789;47.678;9.158;2022-12-11T02:37:56;24.03;;;12.37;;
13432;SDS011;6789;47.678;9.158;2022-12-11T02:43:19;23.90;;;11.07;;
13432;SDS011;6789;47.678;9.158;2022-12-11T02:48:29;24.30;;;11.33;;
13432;SDS011;6789;47.678;9.158;2022-12-11T02:53:39;22.93;;;11.87;;
13432;SDS011;6789;47.678;9.158;2022-12-11T02:58:53;24.60;;;12.10;;
13432;SDS011;6789;47.678;9.158;2022-12-11T03:04:06;21.63;;;11.40;;
13432;SDS011;6789;47.678;9.158;2022-12-11T03:09:13;22.03;;;11.00;;
13432;SDS011;6789;47.678;9.158;2022-12-11T03:14:22;26.90;;;12.23;;
13432;SDS011;6789;47.678;9.158;2022-12-11T03:19:36;21.83;;;10.73;;
13432;SDS011;6789;47.678;9.158;2022-12-11T03:25:06;25.17;;;11.40;;
13432;SDS011;6789;47.678;9.158;2022-12-11T03:30:36;22.20;;;11.83;;
13432;SDS011;6789;47.678;9.158;2022-12-11T03:35:35;20.50;;;11.30;;
13432;SDS011;6789;47.678;9.158;2022-12-11T03:40:31;22.50;;;12.07;;
13432;SDS011;6789;47.678;9.158;2022-12-11T03:45:26;23.73;;;10.97;;
13432;SDS011;6789;47.678;9.158;2022-12-11T03:50:20;25.67;;;11.90;;
13432;SDS011;6789;47.678;9.158;2022-12-11T03:55:15;24.63;;;11.73;;
13432;SDS011;6789;47.678;9.158;2022-12-11T04:00:10;21.70;;;11.53;;
13432;SDS011;6789;47.678;9.158;2022-12-11T04:05:08;24.00;;;11.93;;
13432;SDS011;6789;47.678;9.158;2022-12-11T04:10:02;23.13;;;11.13;;
13432;SDS011;6789;47.678;9.158;2022-12-11T04:14:55;22.73;;;10.83;;
13432;SDS011;6789;47.678;9.158;2022-12-11T04:19:52;23.87;;;11.10;;
13432;SDS011;6789;47.678;9.158;2022-12-11T04:25:03;20.53;;;10.40;;
13432;SDS011;6789;47.678;9.158;2022-12-11T04:29:57;23.27;;;11.77;;
13432;SDS011;6789;47.678;9.158;2022-12-11T04:34:49;25.70;;;10.80;;
13432;SDS011;6789;47.678;9.158;2022-12-11T04:39:41;22.50;;;9.90;;
13432;SDS011;6789;47.678;9.158;2022-12-11T04:44:33;21.43;;;10.33;;
13432;SDS011;6789;47.678;9.158;2022-12-11T04:49:24;21.83;;;9.83;;
13432;SDS011;6789;47.678;9.158;2022-12-11T04:54:16;24.00;;;10.77;;
13432;SDS011;6789;47.678;9.158;2022-12-11T04:59:08;18.83;;;9.67;;
13432;SDS011;6789;47.678;9.158;2022-12-11T05:03:59;22.93;;;10.30;;
13432;SDS011;6789;47.678;9.158;2022-12-11T05:09:05;20.57;;;10.03;;
13432;SDS011;6789;47.678;9.158;2022-12-11T05:14:15;21.20;;;10.13;;
13432;SDS011;6789;47.678;9.158;2022-12-11T05:19:15;18.23;;;9.33;;
13432;SDS011;6789;47.678;9.158;2022-12-11T05:24:08;22.00;;;10.90;;
13432;SDS011;6789;47.678;9.158;2022-12-11T05:29:01;22.33;;;10.30;;
13432;SDS011;6789;47.678;9.158;2022-12-11T05:33:54;17.47;;;9.50;;
13432;SDS011;6789;47.678;9.158;2022-12-11T05:38:49;22.17;;;10.33;;
13432;SDS011;6789;47.678;9.158;2022-12-11T05:43:43;24.67;;;11.07;;
13432;SDS011;6789;47.678;9.158;2022-12-11T05:48:36;19.83;;;9.30;;
13432;SDS011;6789;47.678;9.158;2022-12-11T05:53:37;19.93;;;10.23;;
13432;SDS011;6789;47.678;9.158;2022-12-11T05:58:32;20.63;;;10.10;;
13432;SDS011;6789;47.678;9.158;2022-12-11T06:03:25;22.60;;;10.20;;
13432;SDS011;6789;47.678;9.158;2022-12-11T06:08:32;20.37;;;9.50;;
13432;SDS011;6789;47.678;9.158;2022-12-11T06:13:24;22.07;;;9.00;;
13432;SDS011;6789;47.678;9.158;2022-12-11T06:18:17;19.07;;;9.47;;
13432;SDS011;6789;47.678;9.158;2022-12-11T06:23:09;18.80;;;9.60;;
13432;SDS011;6789;47.678;9.158;2022-12-11T06:28:02;17.13;;;9.07;;
13432;SDS011;6789;47.678;9.158;2022-12-11T06:32:54;17.97;;;9.27;;
13432;SDS011;6789;47.678;9.158;2022-12-11T06:37:48;17.43;;;8.07;;
13432;SDS011;6789;47.678;9.158;2022-12-11T06:43:22;21.37;;;8.43;;
13432;SDS011;6789;47.678;9.158;2022-12-11T06:48:29;16.00;;;8.40;;
13432;SDS011;6789;47.678;9.158;2022-12-11T06:53:36;21.17;;;8.53;;
13432;SDS011;6789;47.678;9.158;2022-12-11T06:58:43;16.67;;;8.60;;
13432;SDS011;6789;47.678;9.158;2022-12-11T07:03:51;14.83;;;8.33;;
13432;SDS011;6789;47.678;9.158;2022-12-11T07:09:09;16.17;;;8.47;;
13432;SDS011;6789;47.678;9.158;2022-12-11T07:14:15;14.80;;;8.00;;
13432;SDS011;6789;47.678;9.158;2022-12-11T07:19:21;15.73;;;8.97;;
13432;SDS011;6789;47.678;9.158;2022-12-11T07:24:28;18.53;;;8.50;;
13432;SDS011;6789;47.678;9.158;2022-12-11T07:29:35;18.80;;;9.00;;
13432;SDS011;6789;47.678;9.158;2022-12-11T07:34:40;15.93;;;8.37;;
13432;SDS011;6789;47.678;9.158;2022-12-11T07:39:46;14.17;;;7.30;;
13432;SDS011;6789;47.678;9.158;2022-12-11T07:44:53;12.73;;;7.27;;
13432;SDS011;6789;47.678;9.158;2022-12-11T07:49:59;13.77;;;7.00;;
13432;SDS011;6789;47.678;9.158;2022-12-11T07:55:06;15.57;;;7.30;;
13432;SDS011;6789;47.678;9.158;2022-12-11T08:00:12;13.67;;;6.50;;
13432;SDS011;6789;47.678;9.158;2022-12-11T08:05:18;13.10;;;6.93;;
13432;SDS011;6789;47.678;9.158;2022-12-11T08:10:26;14.30;;;6.60;;
13432;SDS011;6789;47.678;9.158;2022-12-11T08:15:33;13.70;;;6.87;;
13432;SDS011;6789;47.678;9.158;2022-12-11T08:20:40;13.10;;;7.03;;
13432;SDS011;6789;47.678;9.158;2022-12-11T08:25:46;15.53;;;7.10;;
13432;SDS011;6789;47.678;9.158;2022-12-11T08:30:53;14.43;;;7.27;;
13432;SDS011;6789;47.678;9.158;2022-12-11T08:36:11;14.77;;;7.30;;
13432;SDS011;6789;47.678;9.158;2022-12-11T08:41:27;16.13;;;7.67;;
13432;SDS011;6789;47.678;9.158;2022-12-11T08:46:35;14.43;;;7.47;;
13432;SDS011;6789;47.678;9.158;2022-12-11T08:51:41;14.80;;;7.77;;
13432;SDS011;6789;47.678;9.158;2022-12-11T08:56:47;13.53;;;7.83;;
13432;SDS011;6789;47.678;9.158;2022-12-11T09:01:53;15.50;;;7.33;;
13432;SDS011;6789;47.678;9.158;2022-12-11T09:07:01;11.03;;;6.07;;
13432;SDS011;6789;47.678;9.158;2022-12-11T09:12:07;11.93;;;6.50;;
13432;SDS011;6789;47.678;9.158;2022-12-11T09:17:12;11.80;;;6.23;;
13432;SDS011;6789;47.678;9.158;2022-12-11T09:22:18;9.20;;;5.03;;
13432;SDS011;6789;47.678;9.158;2022-12-11T09:27:24;11.23;;;5.80;;
13432;SDS011;6789;47.678;9.158;2022-12-11T09:32:30;12.13;;;6.37;;
13432;SDS011;6789;47.678;9.158;2022-12-11T09:37:36;12.23;;;5.70;;
13432;SDS011;6789;47.678;9.158;2022-12-11T09:42:48;11.80;;;6.17;;
13432;SDS011;6789;47.678;9.158;2022-12-11T09:48:08;14.27;;;7.53;;
13432;SDS011;6789;47.678;9.158;2022-12-11T09:53:31;16.67;;;7.50;;
13432;SDS011;6789;47.678;9.158;2022-12-11T10:04:26;16.80;;;8.57;;
13432;SDS011;6789;47.678;9.158;2022-12-11T10:20:55;15.57;;;7.87;;
13432;SDS011;6789;47.678;9.158;2022-12-11T10:26:08;14.03;;;8.37;;
13432;SDS011;6789;47.678;9.158;2022-12-11T10:36:55;15.00;;;8.40;;
13432;SDS011;6789;47.678;9.158;2022-12-11T10:42:01;16.77;;;8.97;;
13432;SDS011;6789;47.678;9.158;2022-12-11T10:47:24;15.87;;;9.17;;
13432;SDS011;6789;47.678;9.158;2022-12-11T10:52:32;16.07;;;8.73;;
13432;SDS011;6789;47.678;9.158;2022-12-11T10:57:43;17.00;;;8.80;;
13432;SDS011;6789;47.678;9.158;2022-12-11T11:03:00;15.53;;;8.17;;
13432;SDS011;6789;47.678;9.158;2022-12-11T11:13:27;17.70;;;9.30;;
13432;SDS011;6789;47.678;9.158;2022-12-11T11:18:37;15.93;;;8.53;;
13432;SDS011;6789;47.678;9.158;2022-12-11T11:23:46;14.73;;;7.90;;
13432;SDS011;6789;47.678;9.158;2022-12-11T11:28:52;14.17;;;8.23;;
13432;SDS011;6789;47.678;9.158;2022-12-11T11:33:57;15.30;;;8.27;;
13432;SDS011;6789;47.678;9.158;2022-12-11T11:39:12;11.07;;;6.40;;
13432;SDS011;6789;47.678;9.158;2022-12-11T11:44:34;12.00;;;6.90;;
13432;SDS011;6789;47.678;9.158;2022-12-11T11:49:54;12.53;;;7.57;;
13432;SDS011;6789;47.678;9.158;2022-12-11T11:55:39;12.67;;;7.80;;
13432;SDS011;6789;47.678;9.158;2022-12-11T12:00:53;14.23;;;8.10;;
13432;SDS011;6789;47.678;9.158;2022-12-11T12:22:59;11.77;;;7.43;;
13432;SDS011;6789;47.678;9.158;2022-12-11T12:40:10;11.00;;;7.00;;
13432;SDS011;6789;47.678;9.158;2022-12-11T12:45:51;13.53;;;7.43;;
13432;SDS011;6789;47.678;9.158;2022-12-11T12:51:14;13.07;;;7.77;;
13432;SDS011;6789;47.678;9.158;2022-12-11T12:56:22;13.00;;;7.83;;
13432;SDS011;6789;47.678;9.158;2022-12-11T13:01:35;14.90;;;7.93;;
13432;SDS011;6789;47.678;9.158;2022-12-11T13:06:43;14.50;;;7.47;;
13432;SDS011;6789;47.678;9.158;2022-12-11T13:11:52;14.43;;;7.47;;
13432;SDS011;6789;47.678;9.158;2022-12-11T13:17:06;14.83;;;8.30;;
13432;SDS011;6789;47.678;9.158;2022-12-11T13:22:30;12.20;;;7.40;;
13432;SDS011;6789;47.678;9.158;2022-12-11T13:27:47;12.93;;;7.30;;
13432;SDS011;6789;47.678;9.158;2022-12-11T13:38:18;12.90;;;7.60;;
13432;SDS011;6789;47.678;9.158;2022-12-11T13:43:27;12.50;;;7.63;;
13432;SDS011;6789;47.678;9.158;2022-12-11T13:48:38;12.53;;;7.30;;
13432;SDS011;6789;47.678;9.158;2022-12-11T13:54:02;14.43;;;6.87;;
13432;SDS011;6789;47.678;9.158;2022-12-11T13:59:25;10.23;;;6.43;;
13432;SDS011;6789;47.678;9.158;2022-12-11T14:04:41;12.23;;;7.00;;
13432;SDS011;6789;47.678;9.158;2022-12-11T14:09:48;11.83;;;7.07;;
13432;SDS011;6789;47.678;9.158;2022-12-11T14:14:54;12.30;;;7.07;;
13432;SDS011;6789;47.678;9.158;2022-12-11T14:20:27;11.37;;;7.23;;
13432;SDS011;6789;47.678;9.158;2022-12-11T14:26:00;11.03;;;6.10;;
13432;SDS011;6789;47.678;9.158;2022-12-11T14:31:35;12.57;;;6.27;;
13432;SDS011;6789;47.678;9.158;2022-12-11T14:36:47;11.20;;;6.57;;
13432;SDS011;6789;47.678;9.158;2022-12-11T14:42:00;11.30;;;7.03;;
13432;SDS011;6789;47.678;9.158;2022-12-11T14:47:18;11.63;;;7.37;;
13432;SDS011;6789;47.678;9.158;2022-12-11T14:52:38;14.43;;;8.37;;
13432;SDS011;6789;47.678;9.158;2022-12-11T14:57:53;15.70;;;8.63;;
13432;SDS011;6789;47.678;9.158;2022-12-11T15:08:41;18.57;;;8.87;;
13432;SDS011;6789;47.678;9.158;2022-12-11T15:14:01;17.83;;;8.90;;
13432;SDS011;6789;47.678;9.158;2022-12-11T15:19:24;19.70;;;9.40;;
13432;SDS011;6789;47.678;9.158;2022-12-11T15:24:40;17.00;;;9.67;;
13432;SDS011;6789;47.678;9.158;2022-12-11T15:29:52;19.43;;;8.90;;
13432;SDS011;6789;47.678;9.158;2022-12-11T15:34:59;16.17;;;8.27;;
13432;SDS011;6789;47.678;9.158;2022-12-11T15:40:24;13.67;;;8.27;;
13432;SDS011;6789;47.678;9.158;2022-12-11T15:45:57;17.93;;;9.13;;
13432;SDS011;6789;47.678;9.158;2022-12-11T15:51:05;16.37;;;8.77;;
13432;SDS011;6789;47.678;9.158;2022-12-11T15:56:12;17.50;;;9.17;;
13432;SDS011;6789;47.678;9.158;2022-12-11T16:01:20;18.47;;;9.60;;
13432;SDS011;6789;47.678;9.158;2022-12-11T16:06:37;18.67;;;9.70;;
13432;SDS011;6789;47.678;9.158;2022-12-11T16:11:51;18.97;;;9.97;;
13432;SDS011;6789;47.678;9.158;2022-12-11T16:16:57;18.07;;;9.17;;
13432;SDS011;6789;47.678;9.158;2022-12-11T16:22:03;23.00;;;9.60;;
13432;SDS011;6789;47.678;9.158;2022-12-11T16:27:10;19.47;;;9.83;;
13432;SDS011;6789;47.678;9.158;2022-12-11T16:32:19;21.97;;;10.43;;
13432;SDS011;6789;47.678;9.158;2022-12-11T16:37:26;24.13;;;11.87;;
13432;SDS011;6789;47.678;9.158;2022-12-11T16:42:59;24.33;;;12.33;;
13432;SDS011;6789;47.678;9.158;2022-12-11T16:48:08;20.73;;;10.90;;
13432;SDS011;6789;47.678;9.158;2022-12-11T16:53:15;18.80;;;9.77;;
13432;SDS011;6789;47.678;9.158;2022-12-11T16:58:21;19.93;;;10.27;;
13432;SDS011;6789;47.678;9.158;2022-12-11T17:03:32;27.90;;;13.77;;
13432;SDS011;6789;47.678;9.158;2022-12-11T17:08:43;20.97;;;10.63;;
13432;SDS011;6789;47.678;9.158;2022-12-11T17:14:08;20.97;;;10.67;;
13432;SDS011;6789;47.678;9.158;2022-12-11T17:19:18;20.33;;;11.03;;
13432;SDS011;6789;47.678;9.158;2022-12-11T17:24:35;22.80;;;11.43;;
13432;SDS011;6789;47.678;9.158;2022-12-11T17:29:42;25.17;;;11.40;;
13432;SDS011;6789;47.678;9.158;2022-12-11T17:34:50;23.13;;;10.90;;
13432;SDS011;6789;47.678;9.158;2022-12-11T17:45:55;22.63;;;11.17;;
13432;SDS011;6789;47.678;9.158;2022-12-11T17:51:13;21.00;;;10.77;;
13432;SDS011;6789;47.678;9.158;2022-12-11T17:56:29;23.40;;;10.07;;
13432;SDS011;6789;47.678;9.158;2022-12-11T18:01:41;23.43;;;11.67;;
13432;SDS011;6789;47.678;9.158;2022-12-11T18:06:49;21.43;;;10.50;;
13432;SDS011;6789;47.678;9.158;2022-12-11T18:12:06;20.17;;;10.03;;
13432;SDS011;6789;47.678;9.158;2022-12-11T18:17:24;20.47;;;9.73;;
13432;SDS011;6789;47.678;9.158;2022-12-11T18:22:32;20.63;;;9.97;;
13432;SDS011;6789;47.678;9.158;2022-12-11T18:27:38;21.53;;;10.30;;
13432;SDS011;6789;47.678;9.158;2022-12-11T18:32:44;19.13;;;9.27;;
13432;SDS011;6789;47.678;9.158;2022-12-11T18:37:51;20.27;;;10.13;;
13432;SDS011;6789;47.678;9.158;2022-12-11T18:42:57;32.00;;;13.47;;
13432;SDS011;6789;47.678;9.158;2022-12-11T18:48:05;33.17;;;14.60;;
13432;SDS011;6789;47.678;9.158;2022-12-11T18:53:24;34.43;;;16.47;;
13432;SDS011;6789;47.678;9.158;2022-12-11T18:58:34;38.07;;;18.33;;
13432;SDS011;6789;47.678;9.158;2022-12-11T19:03:41;33.87;;;16.23;;
13432;SDS011;6789;47.678;9.158;2022-12-11T19:08:50;43.37;;;20.60;;
13432;SDS011;6789;47.678;9.158;2022-12-11T19:13:57;38.00;;;16.17;;
13432;SDS011;6789;47.678;9.158;2022-12-11T19:19:05;29.03;;;13.93;;
13432;SDS011;6789;47.678;9.158;2022-12-11T19:24:19;30.93;;;13.70;;
13432;SDS011;6789;47.678;9.158;2022-12-11T19:29:39;28.00;;;13.27;;
13432;SDS011;6789;47.678;9.158;2022-12-11T19:34:45;31.23;;;14.57;;
13432;SDS011;6789;47.678;9.158;2022-12-11T19:39:57;30.70;;;14.80;;
13432;SDS011;6789;47.678;9.158;2022-12-11T19:45:03;28.10;;;14.57;;
13432;SDS011;6789;47.678;9.158;2022-12-11T19:50:11;30.33;;;14.83;;
13432;SDS011;6789;47.678;9.158;2022-12-11T19:55:20;34.17;;;16.50;;
13432;SDS011;6789;47.678;9.158;2022-12-11T20:00:42;32.50;;;14.37;;
13432;SDS011;6789;47.678;9.158;2022-12-11T20:05:49;26.83;;;13.13;;
13432;SDS011;6789;47.678;9.158;2022-12-11T20:11:11;30.67;;;12.90;;
13432;SDS011;6789;47.678;9.158;2022-12-11T20:16:20;28.60;;;12.87;;
13432;SDS011;6789;47.678;9.158;2022-12-11T20:21:27;26.90;;;13.30;;
13432;SDS011;6789;47.678;9.158;2022-12-11T20:27:01;27.87;;;13.30;;
13432;SDS011;6789;47.678;9.158;2022-12-11T20:32:19;25.40;;;12.53;;
13432;SDS011;6789;47.678;9.158;2022-12-11T20:37:25;27.80;;;12.97;;
13432;SDS011;6789;47.678;9.158;2022-12-11T20:48:10;28.57;;;13.43;;
13432;SDS011;6789;47.678;9.158;2022-12-11T20:53:19;24.10;;;11.30;;
13432;SDS011;6789;47.678;9.158;2022-12-11T20:58:26;29.73;;;13.87;;
13432;SDS011;6789;47.678;9.158;2022-12-11T21:03:52;22.93;;;11.43;;
13432;SDS011;6789;47.678;9.158;2022-12-11T21:09:02;24.33;;;11.30;;
13432;SDS011;6789;47.678;9.158;2022-12-11T21:14:12;27.77;;;12.13;;
13432;SDS011;6789;47.678;9.158;2022-12-11T21:19:21;25.03;;;10.67;;
13432;SDS011;6789;47.678;9.158;2022-12-11T21:24:31;26.37;;;11.47;;
13432;SDS011;6789;47.678;9.158;2022-12-11T21:29:39;21.27;;;10.43;;
13432;SDS011;6789;47.678;9.158;2022-12-11T21:34:45;23.73;;;12.03;;
13432;SDS011;6789;47.678;9.158;2022-12-11T21:39:55;31.23;;;12.80;;
13432;SDS011;6789;47.678;9.158;2022-12-11T21:45:05;27.93;;;12.73;;
13432;SDS011;6789;47.678;9.158;2022-12-11T21:50:13;22.93;;;11.53;;
13432;SDS011;6789;47.678;9.158;2022-12-11T21:55:19;24.90;;;11.57;;
13432;SDS011;6789;47.678;9.158;2022-12-11T22:00:28;25.07;;;12.10;;
13432;SDS011;6789;47.678;9.158;2022-12-11T22:05:34;26.27;;;12.47;;
13432;SDS011;6789;47.678;9.158;2022-12-11T22:10:41;25.07;;;12.40;;
13432;SDS011;6789;47.678;9.158;2022-12-11T22:15:48;28.43;;;12.23;;
13432;SDS011;6789;47.678;9.158;2022-12-11T22:20:56;21.93;;;11.43;;
13432;SDS011;6789;47.678;9.158;2022-12-11T22:26:33;30.33;;;12.40;;
13432;SDS011;6789;47.678;9.158;2022-12-11T22:31:39;25.27;;;11.93;;
13432;SDS011;6789;47.678;9.158;2022-12-11T22:36:48;23.80;;;12.10;;
13432;SDS011;6789;47.678;9.158;2022-12-11T22:47:27;30.53;;;13.33;;
13432;SDS011;6789;47.678;9.158;2022-12-11T22:52:34;23.63;;;12.30;;
13432;SDS011;6789;47.678;9.158;2022-12-11T22:57:40;27.87;;;12.90;;
13432;SDS011;6789;47.678;9.158;2022-12-11T23:02:57;23.30;;;11.67;;
13432;SDS011;6789;47.678;9.158;2022-12-11T23:08:03;25.93;;;11.83;;
13432;SDS011;6789;47.678;9.158;2022-12-11T23:12:58;26.83;;;11.97;;
13432;SDS011;6789;47.678;9.158;2022-12-11T23:18:03;30.60;;;13.20;;
13432;SDS011;6789;47.678;9.158;2022-12-11T23:23:11;24.70;;;12.10;;
13432;SDS011;6789;47.678;9.158;2022-12-11T23:28:19;25.73;;;12.40;;
13432;SDS011;6789;47.678;9.158;2022-12-11T23:33:25;25.87;;;11.83;;
13432;SDS011;6789;47.678;9.158;2022-12-11T23:38:31;28.33;;;12.57;;
13432;SDS011;6789;47.678;9.158;2022-12-11T23:43:38;31.47;;;12.63;;
13432;SDS011;6789;47.678;9.158;2022-12-11T23:48:45;29.83;;;12.67;;
13432;SDS011;6789;47.678;9.158;2022-12-11T23:53:52;26.53;;;11.83;;
13432;SDS011;6789;47.678;9.158;2022-12-11T23:58:58;28.60;;;12.93;;
